sensor_id;sensor_type;location;lat;lon;timestamp;P1;durP1;ratioP1;P2;durP2;ratioP2
29940;SDS011;16801;53.562;10.038;2023-04-29T00:01:30;4.13;;;3.83;;
29940;SDS011;16801;53.562;10.038;2023-04-29T00:04:51;4.67;;;3.93;;
29940;SDS011;16801;53.562;10.038;2023-04-29T00:08:12;4.00;;;3.60;;
29940;SDS011;16801;53.562;10.038;2023-04-29T00:11:35;6.63;;;5.00;;
29940;SDS011;16801;53.562;10.038;2023-04-29T00:14:56;4.33;;;3.83;;
29940;SDS011;16801;53.562;10.038;2023-04-29T00:18:17;7.17;;;4.63;;
29940;SDS011;16801;53.562;10.038;2023-04-29T00:21:38;4.63;;;4.17;;
29940;SDS011;16801;53.562;10.038;2023-04-29T00:25:00;5.97;;;5.20;;
29940;SDS011;16801;53.562;10.038;2023-04-29T00:28:22;4.73;;;4.00;;
29940;SDS011;16801;53.562;10.038;2023-04-29T00:31:43;6.90;;;3.83;;
29940;SDS011;16801;53.562;10.038;2023-04-29T00:35:04;3.70;;;3.40;;
29940;SDS011;16801;53.562;10.038;2023-04-29T00:38:25;4.30;;;3.73;;
29940;SDS011;16801;53.562;10.038;2023-04-29T00:41:46;5.70;;;4.90;;
29940;SDS011;16801;53.562;10.038;2023-04-29T00:45:09;5.43;;;4.93;;
29940;SDS011;16801;53.562;10.038;2023-04-29T00:48:30;5.50;;;4.50;;
29940;SDS011;16801;53.562;10.038;2023-04-29T00:51:52;4.57;;;4.17;;
29940;SDS011;16801;53.562;10.038;2023-04-29T00:55:15;5.17;;;4.37;;
29940;SDS011;16801;53.562;10.038;2023-04-29T00:58:37;4.37;;;4.00;;
29940;SDS011;16801;53.562;10.038;2023-04-29T01:02:00;5.83;;;5.33;;
29940;SDS011;16801;53.562;10.038;2023-04-29T01:05:22;6.57;;;5.57;;
29940;SDS011;16801;53.562;10.038;2023-04-29T01:08:47;5.83;;;4.97;;
29940;SDS011;16801;53.562;10.038;2023-04-29T01:12:19;4.27;;;3.87;;
29940;SDS011;16801;53.562;10.038;2023-04-29T01:15:46;5.00;;;4.50;;
29940;SDS011;16801;53.562;10.038;2023-04-29T01:19:20;6.70;;;6.07;;
29940;SDS011;16801;53.562;10.038;2023-04-29T01:22:59;5.57;;;5.07;;
29940;SDS011;16801;53.562;10.038;2023-04-29T01:26:21;6.07;;;5.43;;
29940;SDS011;16801;53.562;10.038;2023-04-29T01:29:56;6.37;;;5.70;;
29940;SDS011;16801;53.562;10.038;2023-04-29T01:33:22;5.30;;;4.80;;
29940;SDS011;16801;53.562;10.038;2023-04-29T01:36:50;7.10;;;5.27;;
29940;SDS011;16801;53.562;10.038;2023-04-29T01:40:16;6.30;;;5.03;;
29940;SDS011;16801;53.562;10.038;2023-04-29T01:43:58;5.93;;;5.13;;
29940;SDS011;16801;53.562;10.038;2023-04-29T01:47:22;6.90;;;6.23;;
29940;SDS011;16801;53.562;10.038;2023-04-29T01:50:47;5.23;;;4.60;;
29940;SDS011;16801;53.562;10.038;2023-04-29T01:54:09;22.23;;;7.03;;
29940;SDS011;16801;53.562;10.038;2023-04-29T01:57:30;6.63;;;4.73;;
29940;SDS011;16801;53.562;10.038;2023-04-29T02:01:00;5.07;;;4.57;;
29940;SDS011;16801;53.562;10.038;2023-04-29T02:04:24;5.50;;;4.97;;
29940;SDS011;16801;53.562;10.038;2023-04-29T02:07:47;6.70;;;5.60;;
29940;SDS011;16801;53.562;10.038;2023-04-29T02:11:07;5.60;;;5.03;;
29940;SDS011;16801;53.562;10.038;2023-04-29T02:14:32;8.87;;;5.43;;
29940;SDS011;16801;53.562;10.038;2023-04-29T02:17:56;6.53;;;4.97;;
29940;SDS011;16801;53.562;10.038;2023-04-29T02:21:17;5.93;;;4.93;;
29940;SDS011;16801;53.562;10.038;2023-04-29T02:24:37;6.63;;;6.03;;
29940;SDS011;16801;53.562;10.038;2023-04-29T02:28:00;5.97;;;4.93;;
29940;SDS011;16801;53.562;10.038;2023-04-29T02:31:20;7.27;;;5.87;;
29940;SDS011;16801;53.562;10.038;2023-04-29T02:34:43;5.57;;;4.50;;
29940;SDS011;16801;53.562;10.038;2023-04-29T02:38:04;9.47;;;6.27;;
29940;SDS011;16801;53.562;10.038;2023-04-29T02:41:25;7.93;;;6.13;;
29940;SDS011;16801;53.562;10.038;2023-04-29T02:44:46;8.03;;;5.30;;
29940;SDS011;16801;53.562;10.038;2023-04-29T02:48:07;7.90;;;5.93;;
29940;SDS011;16801;53.562;10.038;2023-04-29T02:51:29;12.00;;;10.07;;
29940;SDS011;16801;53.562;10.038;2023-04-29T02:54:50;8.60;;;6.90;;
29940;SDS011;16801;53.562;10.038;2023-04-29T02:58:11;9.50;;;8.07;;
29940;SDS011;16801;53.562;10.038;2023-04-29T03:01:32;10.40;;;7.67;;
29940;SDS011;16801;53.562;10.038;2023-04-29T03:04:53;7.50;;;6.43;;
29940;SDS011;16801;53.562;10.038;2023-04-29T03:08:15;10.30;;;6.47;;
29940;SDS011;16801;53.562;10.038;2023-04-29T03:11:36;5.03;;;4.53;;
29940;SDS011;16801;53.562;10.038;2023-04-29T03:14:57;8.17;;;7.10;;
29940;SDS011;16801;53.562;10.038;2023-04-29T03:18:18;5.10;;;4.60;;
29940;SDS011;16801;53.562;10.038;2023-04-29T03:21:40;6.77;;;6.17;;
29940;SDS011;16801;53.562;10.038;2023-04-29T03:25:03;6.67;;;5.40;;
29940;SDS011;16801;53.562;10.038;2023-04-29T03:28:24;6.47;;;5.87;;
29940;SDS011;16801;53.562;10.038;2023-04-29T03:31:45;5.83;;;5.30;;
29940;SDS011;16801;53.562;10.038;2023-04-29T03:35:07;9.73;;;6.90;;
29940;SDS011;16801;53.562;10.038;2023-04-29T03:38:38;8.50;;;5.50;;
29940;SDS011;16801;53.562;10.038;2023-04-29T03:41:59;7.17;;;6.00;;
29940;SDS011;16801;53.562;10.038;2023-04-29T03:45:21;6.87;;;6.27;;
29940;SDS011;16801;53.562;10.038;2023-04-29T03:48:42;6.80;;;6.10;;
29940;SDS011;16801;53.562;10.038;2023-04-29T03:52:02;8.07;;;5.90;;
29940;SDS011;16801;53.562;10.038;2023-04-29T03:55:25;8.53;;;6.37;;
29940;SDS011;16801;53.562;10.038;2023-04-29T03:58:47;6.47;;;5.17;;
29940;SDS011;16801;53.562;10.038;2023-04-29T04:02:08;6.23;;;4.80;;
29940;SDS011;16801;53.562;10.038;2023-04-29T04:05:29;7.63;;;6.63;;
29940;SDS011;16801;53.562;10.038;2023-04-29T04:08:59;9.17;;;5.47;;
29940;SDS011;16801;53.562;10.038;2023-04-29T04:12:23;9.20;;;7.60;;
29940;SDS011;16801;53.562;10.038;2023-04-29T04:15:49;6.73;;;5.30;;
29940;SDS011;16801;53.562;10.038;2023-04-29T04:19:10;6.77;;;5.73;;
29940;SDS011;16801;53.562;10.038;2023-04-29T04:22:35;9.03;;;6.30;;
29940;SDS011;16801;53.562;10.038;2023-04-29T04:26:08;5.47;;;4.97;;
29940;SDS011;16801;53.562;10.038;2023-04-29T04:29:52;6.47;;;5.30;;
29940;SDS011;16801;53.562;10.038;2023-04-29T04:33:21;8.33;;;5.73;;
29940;SDS011;16801;53.562;10.038;2023-04-29T04:36:41;7.30;;;6.67;;
29940;SDS011;16801;53.562;10.038;2023-04-29T04:40:03;6.07;;;5.17;;
29940;SDS011;16801;53.562;10.038;2023-04-29T04:43:31;6.73;;;5.27;;
29940;SDS011;16801;53.562;10.038;2023-04-29T04:46:52;7.03;;;5.13;;
29940;SDS011;16801;53.562;10.038;2023-04-29T04:50:36;7.50;;;6.67;;
29940;SDS011;16801;53.562;10.038;2023-04-29T04:53:57;11.90;;;7.07;;
29940;SDS011;16801;53.562;10.038;2023-04-29T04:57:21;10.57;;;5.70;;
29940;SDS011;16801;53.562;10.038;2023-04-29T05:00:42;8.20;;;6.83;;
29940;SDS011;16801;53.562;10.038;2023-04-29T05:04:04;9.83;;;6.33;;
29940;SDS011;16801;53.562;10.038;2023-04-29T05:07:26;7.60;;;6.20;;
29940;SDS011;16801;53.562;10.038;2023-04-29T05:10:56;5.73;;;5.17;;
29940;SDS011;16801;53.562;10.038;2023-04-29T05:14:17;9.37;;;6.97;;
29940;SDS011;16801;53.562;10.038;2023-04-29T05:17:38;8.70;;;5.63;;
29940;SDS011;16801;53.562;10.038;2023-04-29T05:21:00;8.17;;;5.90;;
29940;SDS011;16801;53.562;10.038;2023-04-29T05:24:22;7.27;;;5.17;;
29940;SDS011;16801;53.562;10.038;2023-04-29T05:27:44;5.07;;;4.57;;
29940;SDS011;16801;53.562;10.038;2023-04-29T05:31:08;6.50;;;4.97;;
29940;SDS011;16801;53.562;10.038;2023-04-29T05:34:29;9.60;;;7.07;;
29940;SDS011;16801;53.562;10.038;2023-04-29T05:37:52;9.40;;;6.17;;
29940;SDS011;16801;53.562;10.038;2023-04-29T05:41:33;7.03;;;6.17;;
29940;SDS011;16801;53.562;10.038;2023-04-29T05:45:12;6.93;;;4.27;;
29940;SDS011;16801;53.562;10.038;2023-04-29T05:48:33;6.10;;;4.50;;
29940;SDS011;16801;53.562;10.038;2023-04-29T05:51:54;6.63;;;5.03;;
29940;SDS011;16801;53.562;10.038;2023-04-29T05:55:15;6.97;;;4.47;;
29940;SDS011;16801;53.562;10.038;2023-04-29T05:58:37;5.83;;;4.87;;
29940;SDS011;16801;53.562;10.038;2023-04-29T06:01:58;4.97;;;4.47;;
29940;SDS011;16801;53.562;10.038;2023-04-29T06:05:20;5.63;;;4.20;;
29940;SDS011;16801;53.562;10.038;2023-04-29T06:09:01;4.93;;;4.47;;
29940;SDS011;16801;53.562;10.038;2023-04-29T06:12:23;7.60;;;5.70;;
29940;SDS011;16801;53.562;10.038;2023-04-29T06:15:46;5.53;;;5.03;;
29940;SDS011;16801;53.562;10.038;2023-04-29T06:19:08;7.97;;;5.10;;
29940;SDS011;16801;53.562;10.038;2023-04-29T06:22:29;8.17;;;5.27;;
29940;SDS011;16801;53.562;10.038;2023-04-29T06:25:50;5.17;;;4.70;;
29940;SDS011;16801;53.562;10.038;2023-04-29T06:29:11;4.93;;;4.43;;
29940;SDS011;16801;53.562;10.038;2023-04-29T06:32:33;6.53;;;4.57;;
29940;SDS011;16801;53.562;10.038;2023-04-29T06:35:54;4.77;;;3.80;;
29940;SDS011;16801;53.562;10.038;2023-04-29T06:39:32;5.73;;;5.17;;
29940;SDS011;16801;53.562;10.038;2023-04-29T06:43:11;8.13;;;4.90;;
29940;SDS011;16801;53.562;10.038;2023-04-29T06:46:58;4.27;;;3.87;;
29940;SDS011;16801;53.562;10.038;2023-04-29T06:50:32;4.53;;;3.73;;
29940;SDS011;16801;53.562;10.038;2023-04-29T06:53:54;8.53;;;4.93;;
29940;SDS011;16801;53.562;10.038;2023-04-29T06:57:15;5.03;;;3.67;;
29940;SDS011;16801;53.562;10.038;2023-04-29T07:00:38;8.33;;;5.03;;
29940;SDS011;16801;53.562;10.038;2023-04-29T07:03:59;4.60;;;3.83;;
29940;SDS011;16801;53.562;10.038;2023-04-29T07:07:22;4.30;;;3.90;;
29940;SDS011;16801;53.562;10.038;2023-04-29T07:10:43;6.20;;;5.13;;
29940;SDS011;16801;53.562;10.038;2023-04-29T07:14:04;4.50;;;3.47;;
29940;SDS011;16801;53.562;10.038;2023-04-29T07:17:25;5.67;;;3.80;;
29940;SDS011;16801;53.562;10.038;2023-04-29T07:20:50;7.50;;;6.80;;
29940;SDS011;16801;53.562;10.038;2023-04-29T07:24:13;5.80;;;4.13;;
29940;SDS011;16801;53.562;10.038;2023-04-29T07:27:33;5.30;;;4.80;;
29940;SDS011;16801;53.562;10.038;2023-04-29T07:30:54;6.47;;;4.03;;
29940;SDS011;16801;53.562;10.038;2023-04-29T07:34:15;5.70;;;4.63;;
29940;SDS011;16801;53.562;10.038;2023-04-29T07:37:36;7.43;;;3.90;;
29940;SDS011;16801;53.562;10.038;2023-04-29T07:40:58;6.53;;;3.47;;
29940;SDS011;16801;53.562;10.038;2023-04-29T07:44:19;4.27;;;2.60;;
29940;SDS011;16801;53.562;10.038;2023-04-29T07:47:40;4.30;;;2.80;;
29940;SDS011;16801;53.562;10.038;2023-04-29T07:51:01;5.37;;;3.70;;
29940;SDS011;16801;53.562;10.038;2023-04-29T07:54:22;4.17;;;3.83;;
29940;SDS011;16801;53.562;10.038;2023-04-29T07:57:45;3.50;;;2.30;;
29940;SDS011;16801;53.562;10.038;2023-04-29T08:01:06;3.03;;;2.27;;
29940;SDS011;16801;53.562;10.038;2023-04-29T08:04:27;5.03;;;3.90;;
29940;SDS011;16801;53.562;10.038;2023-04-29T08:07:53;4.70;;;3.87;;
29940;SDS011;16801;53.562;10.038;2023-04-29T08:11:16;5.87;;;4.17;;
29940;SDS011;16801;53.562;10.038;2023-04-29T08:14:38;4.00;;;3.60;;
29940;SDS011;16801;53.562;10.038;2023-04-29T08:17:59;4.57;;;2.87;;
29940;SDS011;16801;53.562;10.038;2023-04-29T08:21:20;5.90;;;3.73;;
29940;SDS011;16801;53.562;10.038;2023-04-29T08:24:41;5.33;;;4.07;;
29940;SDS011;16801;53.562;10.038;2023-04-29T08:28:03;3.43;;;3.13;;
29940;SDS011;16801;53.562;10.038;2023-04-29T08:31:26;2.50;;;2.30;;
29940;SDS011;16801;53.562;10.038;2023-04-29T08:34:47;2.67;;;2.47;;
29940;SDS011;16801;53.562;10.038;2023-04-29T08:38:07;3.10;;;2.90;;
29940;SDS011;16801;53.562;10.038;2023-04-29T08:41:30;4.40;;;3.20;;
29940;SDS011;16801;53.562;10.038;2023-04-29T08:44:51;3.47;;;2.57;;
29940;SDS011;16801;53.562;10.038;2023-04-29T08:48:14;4.47;;;3.67;;
29940;SDS011;16801;53.562;10.038;2023-04-29T08:51:35;4.33;;;3.93;;
29940;SDS011;16801;53.562;10.038;2023-04-29T08:54:56;5.43;;;3.50;;
29940;SDS011;16801;53.562;10.038;2023-04-29T08:58:17;4.07;;;3.73;;
29940;SDS011;16801;53.562;10.038;2023-04-29T09:01:39;4.37;;;3.03;;
29940;SDS011;16801;53.562;10.038;2023-04-29T09:05:06;4.57;;;3.90;;
29940;SDS011;16801;53.562;10.038;2023-04-29T09:08:29;5.93;;;3.90;;
29940;SDS011;16801;53.562;10.038;2023-04-29T09:11:53;3.90;;;3.60;;
29940;SDS011;16801;53.562;10.038;2023-04-29T09:15:14;3.27;;;2.97;;
29940;SDS011;16801;53.562;10.038;2023-04-29T09:18:41;3.80;;;3.50;;
29940;SDS011;16801;53.562;10.038;2023-04-29T09:22:05;4.83;;;3.73;;
29940;SDS011;16801;53.562;10.038;2023-04-29T09:25:26;9.50;;;3.60;;
29940;SDS011;16801;53.562;10.038;2023-04-29T09:28:47;4.23;;;3.30;;
29940;SDS011;16801;53.562;10.038;2023-04-29T09:32:26;3.87;;;3.00;;
29940;SDS011;16801;53.562;10.038;2023-04-29T09:35:47;5.37;;;4.43;;
29940;SDS011;16801;53.562;10.038;2023-04-29T09:39:09;4.77;;;4.27;;
29940;SDS011;16801;53.562;10.038;2023-04-29T09:42:38;6.23;;;3.97;;
29940;SDS011;16801;53.562;10.038;2023-04-29T09:46:01;5.70;;;4.43;;
29940;SDS011;16801;53.562;10.038;2023-04-29T09:49:23;5.17;;;3.83;;
29940;SDS011;16801;53.562;10.038;2023-04-29T09:52:45;5.37;;;3.70;;
29940;SDS011;16801;53.562;10.038;2023-04-29T09:56:07;10.77;;;4.90;;
29940;SDS011;16801;53.562;10.038;2023-04-29T09:59:28;6.40;;;4.57;;
29940;SDS011;16801;53.562;10.038;2023-04-29T10:02:49;3.93;;;3.53;;
29940;SDS011;16801;53.562;10.038;2023-04-29T10:06:13;3.63;;;2.97;;
29940;SDS011;16801;53.562;10.038;2023-04-29T10:09:36;2.90;;;2.57;;
29940;SDS011;16801;53.562;10.038;2023-04-29T10:13:01;4.07;;;2.40;;
29940;SDS011;16801;53.562;10.038;2023-04-29T10:16:24;2.70;;;2.50;;
29940;SDS011;16801;53.562;10.038;2023-04-29T10:19:51;3.17;;;2.80;;
29940;SDS011;16801;53.562;10.038;2023-04-29T10:23:17;5.43;;;3.97;;
29940;SDS011;16801;53.562;10.038;2023-04-29T10:26:40;3.93;;;2.73;;
29940;SDS011;16801;53.562;10.038;2023-04-29T10:30:04;3.87;;;3.57;;
29940;SDS011;16801;53.562;10.038;2023-04-29T10:33:30;2.60;;;2.40;;
29940;SDS011;16801;53.562;10.038;2023-04-29T10:36:52;4.63;;;2.10;;
29940;SDS011;16801;53.562;10.038;2023-04-29T10:40:14;3.07;;;2.47;;
29940;SDS011;16801;53.562;10.038;2023-04-29T10:43:39;3.53;;;3.23;;
29940;SDS011;16801;53.562;10.038;2023-04-29T10:47:20;3.77;;;3.37;;
29940;SDS011;16801;53.562;10.038;2023-04-29T10:51:00;5.13;;;4.63;;
29940;SDS011;16801;53.562;10.038;2023-04-29T10:54:24;3.83;;;2.93;;
29940;SDS011;16801;53.562;10.038;2023-04-29T10:57:45;3.70;;;3.27;;
29940;SDS011;16801;53.562;10.038;2023-04-29T11:01:09;3.17;;;2.63;;
29940;SDS011;16801;53.562;10.038;2023-04-29T11:04:32;3.17;;;2.50;;
29940;SDS011;16801;53.562;10.038;2023-04-29T11:08:07;4.63;;;3.27;;
29940;SDS011;16801;53.562;10.038;2023-04-29T11:11:45;4.83;;;2.77;;
29940;SDS011;16801;53.562;10.038;2023-04-29T11:15:08;7.13;;;2.77;;
29940;SDS011;16801;53.562;10.038;2023-04-29T11:18:29;4.32;;;3.92;;
29940;SDS011;16801;53.562;10.038;2023-04-29T11:22:02;4.53;;;3.75;;
29940;SDS011;16801;53.562;10.038;2023-04-29T11:25:27;4.43;;;3.78;;
29940;SDS011;16801;53.562;10.038;2023-04-29T11:28:48;27.53;;;3.80;;
29940;SDS011;16801;53.562;10.038;2023-04-29T11:32:11;7.72;;;3.72;;
29940;SDS011;16801;53.562;10.038;2023-04-29T11:35:32;8.63;;;3.38;;
29940;SDS011;16801;53.562;10.038;2023-04-29T11:38:54;3.80;;;3.28;;
29940;SDS011;16801;53.562;10.038;2023-04-29T11:42:19;5.57;;;3.97;;
29940;SDS011;16801;53.562;10.038;2023-04-29T11:45:40;4.65;;;3.78;;
29940;SDS011;16801;53.562;10.038;2023-04-29T11:49:01;2.97;;;2.67;;
29940;SDS011;16801;53.562;10.038;2023-04-29T11:52:22;4.68;;;3.20;;
29940;SDS011;16801;53.562;10.038;2023-04-29T11:55:45;3.50;;;3.20;;
29940;SDS011;16801;53.562;10.038;2023-04-29T11:59:06;3.28;;;2.97;;
29940;SDS011;16801;53.562;10.038;2023-04-29T12:02:30;3.88;;;2.67;;
29940;SDS011;16801;53.562;10.038;2023-04-29T12:05:51;5.70;;;3.00;;
29940;SDS011;16801;53.562;10.038;2023-04-29T12:09:13;3.05;;;2.45;;
29940;SDS011;16801;53.562;10.038;2023-04-29T12:12:36;2.90;;;2.60;;
29940;SDS011;16801;53.562;10.038;2023-04-29T12:15:58;3.67;;;3.17;;
29940;SDS011;16801;53.562;10.038;2023-04-29T12:19:19;4.20;;;3.83;;
29940;SDS011;16801;53.562;10.038;2023-04-29T12:22:41;4.13;;;3.83;;
29940;SDS011;16801;53.562;10.038;2023-04-29T12:26:03;10.68;;;9.73;;
29940;SDS011;16801;53.562;10.038;2023-04-29T12:29:26;3.40;;;3.10;;
29940;SDS011;16801;53.562;10.038;2023-04-29T12:32:46;2.78;;;2.55;;
29940;SDS011;16801;53.562;10.038;2023-04-29T12:36:14;3.20;;;2.70;;
29940;SDS011;16801;53.562;10.038;2023-04-29T12:39:36;4.47;;;2.85;;
29940;SDS011;16801;53.562;10.038;2023-04-29T12:43:05;2.38;;;2.28;;
29940;SDS011;16801;53.562;10.038;2023-04-29T12:46:28;1.70;;;1.60;;
29940;SDS011;16801;53.562;10.038;2023-04-29T12:49:56;3.35;;;2.38;;
29940;SDS011;16801;53.562;10.038;2023-04-29T12:53:16;2.13;;;1.33;;
29940;SDS011;16801;53.562;10.038;2023-04-29T12:56:38;1.92;;;1.83;;
29940;SDS011;16801;53.562;10.038;2023-04-29T12:59:59;2.10;;;1.63;;
29940;SDS011;16801;53.562;10.038;2023-04-29T13:03:21;2.58;;;2.17;;
29940;SDS011;16801;53.562;10.038;2023-04-29T13:06:42;2.42;;;2.22;;
29940;SDS011;16801;53.562;10.038;2023-04-29T13:10:03;8.15;;;2.85;;
29940;SDS011;16801;53.562;10.038;2023-04-29T13:13:25;2.25;;;2.03;;
29940;SDS011;16801;53.562;10.038;2023-04-29T13:16:47;3.15;;;2.20;;
29940;SDS011;16801;53.562;10.038;2023-04-29T13:20:09;4.28;;;3.88;;
29940;SDS011;16801;53.562;10.038;2023-04-29T13:23:30;4.20;;;2.95;;
29940;SDS011;16801;53.562;10.038;2023-04-29T13:26:51;3.83;;;2.53;;
29940;SDS011;16801;53.562;10.038;2023-04-29T13:30:12;5.40;;;2.95;;
29940;SDS011;16801;53.562;10.038;2023-04-29T13:33:35;4.97;;;3.35;;
29940;SDS011;16801;53.562;10.038;2023-04-29T13:36:57;3.15;;;1.98;;
29940;SDS011;16801;53.562;10.038;2023-04-29T13:40:18;2.35;;;1.90;;
29940;SDS011;16801;53.562;10.038;2023-04-29T13:43:39;1.83;;;1.70;;
29940;SDS011;16801;53.562;10.038;2023-04-29T13:47:00;1.42;;;1.33;;
29940;SDS011;16801;53.562;10.038;2023-04-29T13:50:22;2.42;;;2.08;;
29940;SDS011;16801;53.562;10.038;2023-04-29T13:53:44;2.03;;;1.83;;
29940;SDS011;16801;53.562;10.038;2023-04-29T13:57:05;3.10;;;1.73;;
29940;SDS011;16801;53.562;10.038;2023-04-29T14:00:26;3.90;;;1.33;;
29940;SDS011;16801;53.562;10.038;2023-04-29T14:03:48;1.73;;;1.63;;
29940;SDS011;16801;53.562;10.038;2023-04-29T14:07:09;6.47;;;5.43;;
29940;SDS011;16801;53.562;10.038;2023-04-29T14:10:31;3.83;;;2.90;;
29940;SDS011;16801;53.562;10.038;2023-04-29T14:13:52;1.38;;;1.27;;
29940;SDS011;16801;53.562;10.038;2023-04-29T14:17:12;3.38;;;1.15;;
29940;SDS011;16801;53.562;10.038;2023-04-29T14:20:33;1.73;;;1.40;;
29940;SDS011;16801;53.562;10.038;2023-04-29T14:23:54;1.52;;;1.42;;
29940;SDS011;16801;53.562;10.038;2023-04-29T14:27:17;3.05;;;2.00;;
29940;SDS011;16801;53.562;10.038;2023-04-29T14:30:38;1.35;;;1.30;;
29940;SDS011;16801;53.562;10.038;2023-04-29T14:33:59;1.58;;;1.30;;
29940;SDS011;16801;53.562;10.038;2023-04-29T14:37:20;1.48;;;1.15;;
29940;SDS011;16801;53.562;10.038;2023-04-29T14:40:41;1.98;;;1.85;;
29940;SDS011;16801;53.562;10.038;2023-04-29T14:44:03;1.67;;;1.58;;
29940;SDS011;16801;53.562;10.038;2023-04-29T14:47:24;1.88;;;1.17;;
29940;SDS011;16801;53.562;10.038;2023-04-29T14:50:45;2.75;;;1.95;;
29940;SDS011;16801;53.562;10.038;2023-04-29T14:54:05;2.03;;;1.88;;
29940;SDS011;16801;53.562;10.038;2023-04-29T14:57:27;1.15;;;1.08;;
29940;SDS011;16801;53.562;10.038;2023-04-29T15:00:50;1.45;;;1.35;;
29940;SDS011;16801;53.562;10.038;2023-04-29T15:04:11;1.23;;;0.82;;
29940;SDS011;16801;53.562;10.038;2023-04-29T15:07:32;2.25;;;1.13;;
29940;SDS011;16801;53.562;10.038;2023-04-29T15:10:54;0.95;;;0.93;;
29940;SDS011;16801;53.562;10.038;2023-04-29T15:14:15;1.70;;;1.13;;
29940;SDS011;16801;53.562;10.038;2023-04-29T15:17:37;0.70;;;0.70;;
29940;SDS011;16801;53.562;10.038;2023-04-29T15:20:58;1.50;;;1.00;;
29940;SDS011;16801;53.562;10.038;2023-04-29T15:24:18;1.10;;;1.00;;
29940;SDS011;16801;53.562;10.038;2023-04-29T15:27:39;0.93;;;0.73;;
29940;SDS011;16801;53.562;10.038;2023-04-29T15:31:00;0.75;;;0.65;;
29940;SDS011;16801;53.562;10.038;2023-04-29T15:34:24;1.02;;;1.02;;
29940;SDS011;16801;53.562;10.038;2023-04-29T15:37:45;2.75;;;1.10;;
29940;SDS011;16801;53.562;10.038;2023-04-29T15:41:06;1.33;;;1.23;;
29940;SDS011;16801;53.562;10.038;2023-04-29T15:44:27;2.15;;;1.15;;
29940;SDS011;16801;53.562;10.038;2023-04-29T15:47:49;1.02;;;0.90;;
29940;SDS011;16801;53.562;10.038;2023-04-29T15:51:11;1.05;;;1.00;;
29940;SDS011;16801;53.562;10.038;2023-04-29T15:54:33;2.25;;;1.83;;
29940;SDS011;16801;53.562;10.038;2023-04-29T15:57:54;5.20;;;2.35;;
29940;SDS011;16801;53.562;10.038;2023-04-29T16:01:14;2.67;;;2.47;;
29940;SDS011;16801;53.562;10.038;2023-04-29T16:04:35;4.63;;;3.60;;
29940;SDS011;16801;53.562;10.038;2023-04-29T16:07:58;8.52;;;6.57;;
29940;SDS011;16801;53.562;10.038;2023-04-29T16:11:19;8.60;;;4.43;;
29940;SDS011;16801;53.562;10.038;2023-04-29T16:14:40;6.65;;;3.33;;
29940;SDS011;16801;53.562;10.038;2023-04-29T16:18:01;0.82;;;0.82;;
29940;SDS011;16801;53.562;10.038;2023-04-29T16:21:22;1.65;;;1.55;;
29940;SDS011;16801;53.562;10.038;2023-04-29T16:24:45;3.22;;;2.58;;
29940;SDS011;16801;53.562;10.038;2023-04-29T16:28:06;3.25;;;2.10;;
29940;SDS011;16801;53.562;10.038;2023-04-29T16:31:27;2.97;;;1.90;;
29940;SDS011;16801;53.562;10.038;2023-04-29T16:34:48;2.42;;;1.63;;
29940;SDS011;16801;53.562;10.038;2023-04-29T16:38:10;3.43;;;1.93;;
29940;SDS011;16801;53.562;10.038;2023-04-29T16:41:33;1.75;;;1.48;;
29940;SDS011;16801;53.562;10.038;2023-04-29T16:44:55;3.17;;;1.48;;
29940;SDS011;16801;53.562;10.038;2023-04-29T16:48:16;3.28;;;2.97;;
29940;SDS011;16801;53.562;10.038;2023-04-29T16:51:37;3.07;;;2.10;;
29940;SDS011;16801;53.562;10.038;2023-04-29T16:54:58;3.93;;;1.63;;
29940;SDS011;16801;53.562;10.038;2023-04-29T16:58:21;3.60;;;1.30;;
29940;SDS011;16801;53.562;10.038;2023-04-29T17:01:43;4.37;;;1.50;;
29940;SDS011;16801;53.562;10.038;2023-04-29T17:05:04;2.40;;;1.83;;
29940;SDS011;16801;53.562;10.038;2023-04-29T17:08:27;3.77;;;1.63;;
29940;SDS011;16801;53.562;10.038;2023-04-29T17:11:48;2.53;;;1.57;;
29940;SDS011;16801;53.562;10.038;2023-04-29T17:15:11;3.13;;;2.43;;
29940;SDS011;16801;53.562;10.038;2023-04-29T17:18:31;5.73;;;2.43;;
29940;SDS011;16801;53.562;10.038;2023-04-29T17:21:52;1.97;;;1.87;;
29940;SDS011;16801;53.562;10.038;2023-04-29T17:25:13;3.23;;;2.33;;
29940;SDS011;16801;53.562;10.038;2023-04-29T17:28:35;2.70;;;1.90;;
29940;SDS011;16801;53.562;10.038;2023-04-29T17:31:57;1.03;;;0.93;;
29940;SDS011;16801;53.562;10.038;2023-04-29T17:35:20;1.87;;;1.27;;
29940;SDS011;16801;53.562;10.038;2023-04-29T17:38:41;3.23;;;1.37;;
29940;SDS011;16801;53.562;10.038;2023-04-29T17:42:02;2.30;;;2.10;;
29940;SDS011;16801;53.562;10.038;2023-04-29T17:45:23;1.47;;;1.23;;
29940;SDS011;16801;53.562;10.038;2023-04-29T17:48:46;1.07;;;1.00;;
29940;SDS011;16801;53.562;10.038;2023-04-29T17:52:07;2.40;;;1.63;;
29940;SDS011;16801;53.562;10.038;2023-04-29T17:55:28;3.43;;;1.13;;
29940;SDS011;16801;53.562;10.038;2023-04-29T17:58:49;1.80;;;1.10;;
29940;SDS011;16801;53.562;10.038;2023-04-29T18:02:09;1.43;;;1.10;;
29940;SDS011;16801;53.562;10.038;2023-04-29T18:05:32;0.70;;;0.70;;
29940;SDS011;16801;53.562;10.038;2023-04-29T18:08:52;1.70;;;1.20;;
29940;SDS011;16801;53.562;10.038;2023-04-29T18:12:13;1.83;;;1.33;;
29940;SDS011;16801;53.562;10.038;2023-04-29T18:15:34;2.73;;;1.10;;
29940;SDS011;16801;53.562;10.038;2023-04-29T18:18:54;3.70;;;1.77;;
29940;SDS011;16801;53.562;10.038;2023-04-29T18:22:16;1.27;;;1.03;;
29940;SDS011;16801;53.562;10.038;2023-04-29T18:25:37;3.37;;;1.03;;
29940;SDS011;16801;53.562;10.038;2023-04-29T18:28:59;3.27;;;1.80;;
29940;SDS011;16801;53.562;10.038;2023-04-29T18:32:20;2.20;;;2.00;;
29940;SDS011;16801;53.562;10.038;2023-04-29T18:35:41;2.47;;;1.30;;
29940;SDS011;16801;53.562;10.038;2023-04-29T18:39:03;4.57;;;1.37;;
29940;SDS011;16801;53.562;10.038;2023-04-29T18:42:24;1.00;;;1.00;;
29940;SDS011;16801;53.562;10.038;2023-04-29T18:45:45;2.27;;;1.30;;
29940;SDS011;16801;53.562;10.038;2023-04-29T18:49:06;1.73;;;1.63;;
29940;SDS011;16801;53.562;10.038;2023-04-29T18:52:33;3.27;;;1.20;;
29940;SDS011;16801;53.562;10.038;2023-04-29T18:55:56;4.63;;;2.50;;
29940;SDS011;16801;53.562;10.038;2023-04-29T18:59:18;2.70;;;1.50;;
29940;SDS011;16801;53.562;10.038;2023-04-29T19:02:39;3.37;;;2.17;;
29940;SDS011;16801;53.562;10.038;2023-04-29T19:06:00;3.23;;;1.93;;
29940;SDS011;16801;53.562;10.038;2023-04-29T19:09:20;2.87;;;2.00;;
29940;SDS011;16801;53.562;10.038;2023-04-29T19:12:42;4.77;;;2.13;;
29940;SDS011;16801;53.562;10.038;2023-04-29T19:16:03;1.67;;;1.30;;
29940;SDS011;16801;53.562;10.038;2023-04-29T19:19:25;1.77;;;1.57;;
29940;SDS011;16801;53.562;10.038;2023-04-29T19:22:45;4.83;;;1.50;;
29940;SDS011;16801;53.562;10.038;2023-04-29T19:26:07;3.30;;;2.03;;
29940;SDS011;16801;53.562;10.038;2023-04-29T19:29:30;5.27;;;2.03;;
29940;SDS011;16801;53.562;10.038;2023-04-29T19:32:51;2.40;;;1.37;;
29940;SDS011;16801;53.562;10.038;2023-04-29T19:36:12;3.63;;;2.00;;
29940;SDS011;16801;53.562;10.038;2023-04-29T19:39:33;4.57;;;2.60;;
29940;SDS011;16801;53.562;10.038;2023-04-29T19:42:54;3.67;;;1.67;;
29940;SDS011;16801;53.562;10.038;2023-04-29T19:46:16;3.30;;;2.17;;
29940;SDS011;16801;53.562;10.038;2023-04-29T19:49:37;2.77;;;2.53;;
29940;SDS011;16801;53.562;10.038;2023-04-29T19:52:58;1.37;;;1.27;;
29940;SDS011;16801;53.562;10.038;2023-04-29T19:56:19;1.53;;;1.43;;
29940;SDS011;16801;53.562;10.038;2023-04-29T19:59:39;3.77;;;1.60;;
29940;SDS011;16801;53.562;10.038;2023-04-29T20:03:02;1.80;;;1.57;;